Time;durP1;ratioP1;P1;durP2;ratioP2;P2;SDS_P1;SDS_P2;PMS_P1;PMS_P2;Temp;Humidity;BMP_temperature;BMP_pressure;BME280_temperature;BME280_humidity;BME280_pressure;Samples;Min_cycle;Max_cycle;Signal;HPM_P1;HPM_P2
2022/12/20 00:01:49;;;;;;;24.02;16.70;;;;;;;4.81;72.70;101181.13;4160448;28;20056;-64
2022/12/20 00:03:54;;;;;;;24.30;15.82;;;;;;;4.81;72.70;101166.53;4160512;28;20047;-64
2022/12/20 00:05:57;;;;;;;24.50;16.98;;;;;;;4.83;72.73;101167.53;4156634;28;20177;-64
2022/12/20 00:08:00;;;;;;;25.27;16.80;;;;;;;4.85;72.64;101158.16;4161572;28;20038;-64
2022/12/20 00:10:03;;;;;;;24.10;15.98;;;;;;;4.85;72.69;101154.72;4156658;28;20049;-64
2022/12/20 00:12:06;;;;;;;30.40;17.55;;;;;;;4.86;72.68;101152.22;4160685;28;20041;-64
2022/12/20 00:14:09;;;;;;;27.30;17.20;;;;;;;4.88;72.60;101148.00;4156896;28;20038;-64
2022/12/20 00:16:14;;;;;;;27.77;16.35;;;;;;;4.96;72.38;101150.06;4163411;28;20038;-64
2022/12/20 00:18:18;;;;;;;26.20;17.10;;;;;;;4.91;72.17;101147.28;4145644;28;20080;-65
2022/12/20 00:20:21;;;;;;;25.30;16.70;;;;;;;4.89;72.21;101148.88;4146001;28;20499;-64
2022/12/20 00:22:24;;;;;;;26.40;17.52;;;;;;;4.87;72.22;101150.50;4150339;28;20072;-64
2022/12/20 00:24:26;;;;;;;26.20;16.58;;;;;;;4.87;72.38;101145.34;4161349;28;20071;-64
2022/12/20 00:26:31;;;;;;;26.05;16.73;;;;;;;4.85;72.36;101147.00;4156908;28;20045;-64
2022/12/20 00:28:35;;;;;;;22.58;15.20;;;;;;;4.81;72.42;101133.06;4162164;28;20041;-64
2022/12/20 00:30:38;;;;;;;25.42;16.35;;;;;;;4.81;72.59;101140.78;4161740;28;20159;-64
2022/12/20 00:32:41;;;;;;;30.52;18.90;;;;;;;4.81;72.71;101135.63;4118184;28;1053258;-64
2022/12/20 00:34:45;;;;;;;41.00;24.80;;;;;;;4.81;72.61;101143.38;4163416;28;20045;-64
2022/12/20 00:36:48;;;;;;;28.23;15.95;;;;;;;4.75;72.75;101135.34;4162748;28;20412;-64
2022/12/20 00:38:53;;;;;;;24.92;15.45;;;;;;;4.65;72.97;101135.72;4162713;28;20475;-65
2022/12/20 00:41:00;;;;;;;21.45;15.13;;;;;;;4.66;72.85;101143.50;4177055;28;20099;-65
2022/12/20 00:43:04;;;;;;;22.85;14.85;;;;;;;4.64;73.02;101136.50;4155774;28;20041;-65
2022/12/20 00:45:08;;;;;;;23.08;15.70;;;;;;;4.62;73.06;101132.97;4171131;28;20139;-64
2022/12/20 00:47:11;;;;;;;23.23;14.10;;;;;;;4.63;72.77;101129.56;4147551;28;20049;-64
2022/12/20 00:49:15;;;;;;;24.38;15.82;;;;;;;4.67;73.08;101136.66;4146223;28;20046;-64
2022/12/20 00:51:21;;;;;;;22.83;15.60;;;;;;;4.68;73.21;101143.59;4158860;28;20040;-64
2022/12/20 00:53:24;;;;;;;22.88;15.00;;;;;;;4.70;73.41;101139.38;4150305;28;20049;-64
2022/12/20 00:55:28;;;;;;;23.08;15.88;;;;;;;4.79;72.61;101137.28;4153304;28;20116;-64
2022/12/20 00:57:31;;;;;;;25.77;15.60;;;;;;;4.82;72.59;101142.56;4160300;28;20069;-64
2022/12/20 00:59:34;;;;;;;25.38;15.73;;;;;;;4.83;72.57;101149.50;4148601;28;20132;-64
2022/12/20 01:01:37;;;;;;;23.65;15.57;;;;;;;4.83;72.42;101149.50;4159703;28;20052;-66
2022/12/20 01:03:40;;;;;;;25.08;15.98;;;;;;;4.84;72.53;101150.38;4161822;28;20041;-67
2022/12/20 01:05:50;;;;;;;22.00;14.15;;;;;;;4.85;72.70;101152.16;4146795;28;20054;-70
2022/12/20 01:07:55;;;;;;;22.80;14.82;;;;;;;4.84;72.57;101151.25;4152254;28;20072;-66
2022/12/20 01:09:58;;;;;;;30.20;15.90;;;;;;;4.79;72.68;101151.81;4156865;28;20045;-65
2022/12/20 01:12:01;;;;;;;22.80;14.57;;;;;;;4.79;72.45;101146.66;4145674;28;20519;-64
2022/12/20 01:14:11;;;;;;;24.88;14.88;;;;;;;4.78;72.75;101145.78;4159919;28;20043;-66
2022/12/20 01:16:17;;;;;;;22.58;15.50;;;;;;;4.78;72.82;101139.78;4147346;28;20496;-66
2022/12/20 01:18:20;;;;;;;24.05;14.90;;;;;;;4.79;72.74;101145.00;4146433;28;20046;-65
2022/12/20 01:20:23;;;;;;;24.60;15.50;;;;;;;4.82;72.82;101142.56;4159666;28;20064;-65
2022/12/20 01:22:26;;;;;;;27.27;16.15;;;;;;;4.84;72.60;101138.34;4161614;28;20037;-65
2022/12/20 01:24:30;;;;;;;28.65;18.65;;;;;;;4.89;72.28;101134.31;4161476;28;20061;-65
2022/12/20 01:26:33;;;;;;;26.73;17.00;;;;;;;4.90;72.31;101138.66;4148314;28;20086;-64
2022/12/20 01:28:37;;;;;;;26.40;16.08;;;;;;;4.84;72.19;101140.94;4148300;28;20044;-64
2022/12/20 01:30:41;;;;;;;24.58;17.10;;;;;;;4.82;72.27;101132.25;4156003;28;20514;-65
2022/12/20 01:32:43;;;;;;;23.98;14.10;;;;;;;4.81;72.46;101132.19;4162816;28;20392;-64
2022/12/20 01:34:47;;;;;;;24.98;16.90;;;;;;;4.74;72.14;101132.69;4155649;28;20033;-65
2022/12/20 01:36:50;;;;;;;26.75;15.68;;;;;;;4.69;72.59;101129.91;4148816;28;20540;-64
2022/12/20 01:38:57;;;;;;;21.80;14.13;;;;;;;4.68;72.48;101136.72;4159479;28;20037;-65
2022/12/20 01:41:01;;;;;;;29.77;16.83;;;;;;;4.68;72.63;101135.84;4163951;28;20167;-65
2022/12/20 01:43:04;;;;;;;;;;;;;;;4.60;72.40;101138.06;4165446;28;20041;-65
2022/12/20 01:45:13;;;;;;;24.08;16.23;;;;;;;4.61;72.69;101131.22;4164777;28;19972;-65
2022/12/20 01:47:16;;;;;;;28.90;17.80;;;;;;;4.64;72.51;101133.94;4161661;28;20040;-65
2022/12/20 01:49:22;;;;;;;26.48;17.10;;;;;;;4.70;72.47;101126.50;4164686;28;20037;-65
2022/12/20 01:51:26;;;;;;;27.88;17.20;;;;;;;4.70;72.41;101126.50;4149694;28;20447;-65
2022/12/20 01:53:29;;;;;;;27.83;17.45;;;;;;;4.69;72.21;101125.63;4135032;28;20037;-65
2022/12/20 01:55:33;;;;;;;27.05;17.45;;;;;;;4.76;72.12;101116.50;4163379;28;20049;-65
2022/12/20 01:57:42;;;;;;;27.48;17.98;;;;;;;4.74;72.05;101114.66;4163956;28;20052;-64
2022/12/20 01:59:49;;;;;;;26.05;17.73;;;;;;;4.69;72.21;101114.44;4146274;28;20045;-66
2022/12/20 02:01:51;;;;;;;26.83;17.17;;;;;;;4.67;72.32;101114.38;4158225;28;20041;-65
2022/12/20 02:03:55;;;;;;;24.92;15.88;;;;;;;4.67;72.35;101105.75;4147714;28;20108;-65
2022/12/20 02:06:14;;;;;;;27.33;17.13;;;;;;;4.70;72.32;101105.91;4148406;28;20046;-64
2022/12/20 02:08:20;;;;;;;26.17;16.83;;;;;;;4.71;72.71;101108.53;4155336;28;20038;-65
2022/12/20 02:10:27;;;;;;;25.85;17.58;;;;;;;4.75;72.48;101094.13;4160405;28;20065;-64
2022/12/20 02:12:37;;;;;;;26.27;16.60;;;;;;;4.75;72.37;101091.56;4156917;28;20038;-65
2022/12/20 02:14:55;;;;;;;25.23;16.33;;;;;;;4.77;72.31;101087.34;4160640;28;20030;-65
2022/12/20 02:17:05;;;;;;;24.83;17.63;;;;;;;4.76;72.24;101087.28;4158828;28;20056;-65
2022/12/20 02:19:26;;;;;;;23.42;15.85;;;;;;;4.71;72.25;101092.22;4164815;28;20095;-65
2022/12/20 02:21:37;;;;;;;23.45;14.98;;;;;;;4.69;72.32;101088.69;4152891;28;20542;-65
2022/12/20 02:24:13;;;;;;;27.10;17.20;;;;;;;4.64;72.57;101085.88;4164497;28;20564;-64
2022/12/20 02:26:41;;;;;;;27.85;17.38;;;;;;;4.61;72.48;101075.44;4148031;28;20046;-65
2022/12/20 02:29:02;;;;;;;27.15;17.15;;;;;;;4.58;72.81;101074.41;4149400;28;20060;-65
2022/12/20 02:31:12;;;;;;;24.50;16.77;;;;;;;4.77;72.25;101061.59;4156948;28;20045;-65
2022/12/20 02:33:15;;;;;;;26.38;18.52;;;;;;;4.76;72.19;101065.00;4160276;28;20454;-64
2022/12/20 02:35:23;;;;;;;26.60;16.75;;;;;;;4.69;72.25;101055.22;4156477;28;20116;-64
2022/12/20 02:37:26;;;;;;;26.25;17.60;;;;;;;4.68;72.21;101053.44;4131691;28;20046;-64
2022/12/20 02:39:31;;;;;;;24.50;15.68;;;;;;;4.64;72.58;101052.41;4154649;28;20065;-65
2022/12/20 02:41:40;;;;;;;24.73;16.42;;;;;;;4.67;72.60;101056.81;4161986;28;20038;-65
2022/12/20 02:46:09;;;;;;;30.63;17.35;;;;;;;4.52;73.00;101062.13;4163465;28;20411;-64
2022/12/20 02:48:12;;;;;;;27.48;18.27;;;;;;;4.48;73.17;101053.38;4147460;28;20049;-64
2022/12/20 02:50:20;;;;;;;23.25;16.77;;;;;;;4.57;73.40;101059.75;4151691;28;20132;-64
2022/12/20 02:52:29;;;;;;;29.02;18.65;;;;;;;4.45;73.04;101068.66;4160368;28;20037;-65
2022/12/20 02:54:33;;;;;;;30.05;19.10;;;;;;;4.41;73.33;101059.03;4159215;28;20131;-64
2022/12/20 02:56:42;;;;;;;29.58;18.30;;;;;;;4.49;73.25;101062.84;4147608;28;20104;-65
2022/12/20 02:58:51;;;;;;;28.98;19.17;;;;;;;4.51;73.32;101056.09;4155842;28;20120;-65
2022/12/20 03:01:03;;;;;;;26.70;18.23;;;;;;;4.50;73.14;101071.47;4178261;28;20051;-65
2022/12/20 03:03:22;;;;;;;26.40;16.55;;;;;;;4.55;73.37;101046.81;4147375;28;20049;-65
2022/12/20 03:05:27;;;;;;;25.83;16.83;;;;;;;4.48;73.51;101058.53;4162330;28;20029;-65
2022/12/20 03:07:33;;;;;;;26.13;17.50;;;;;;;4.52;73.29;101046.66;4159442;28;20128;-65
2022/12/20 03:09:39;;;;;;;26.48;18.02;;;;;;;4.53;73.51;101049.31;4145480;28;20069;-64
2022/12/20 03:11:42;;;;;;;28.00;17.05;;;;;;;4.59;73.50;101042.72;4156382;28;20495;-64
2022/12/20 03:13:45;;;;;;;27.05;17.67;;;;;;;4.66;73.02;101032.75;4148826;28;20861;-65
2022/12/20 03:15:48;;;;;;;30.90;19.00;;;;;;;4.71;72.93;101022.69;4161981;28;20084;-65
2022/12/20 03:17:50;;;;;;;28.65;16.52;;;;;;;4.75;72.93;101016.00;4172938;28;20137;-65
2022/12/20 03:19:55;;;;;;;24.40;16.60;;;;;;;4.76;72.88;101022.88;4158357;28;20121;-65
2022/12/20 03:21:58;;;;;;;29.48;17.33;;;;;;;4.80;72.71;101024.81;4157122;28;20042;-64
2022/12/20 03:24:01;;;;;;;26.00;16.80;;;;;;;4.83;72.71;101031.00;4147235;28;20041;-65
2022/12/20 03:26:04;;;;;;;26.00;16.90;;;;;;;4.85;72.68;101037.09;4148170;28;20049;-64
2022/12/20 03:28:15;;;;;;;29.42;18.17;;;;;;;4.87;72.26;101030.31;4162191;28;20454;-64
2022/12/20 03:30:19;;;;;;;26.92;16.73;;;;;;;4.81;72.50;101027.44;4160920;28;20124;-64
2022/12/20 03:32:22;;;;;;;30.52;20.23;;;;;;;4.78;72.54;101021.28;4159617;28;20087;-64
2022/12/20 03:34:25;;;;;;;26.75;18.23;;;;;;;4.82;72.34;101023.16;4143442;28;20504;-65
2022/12/20 03:36:30;;;;;;;26.13;18.08;;;;;;;4.74;72.59;101022.81;4163329;28;20068;-65
2022/12/20 03:38:36;;;;;;;26.80;16.90;;;;;;;4.72;72.51;101021.88;4163457;28;20380;-65
2022/12/20 03:40:41;;;;;;;25.33;15.70;;;;;;;4.69;72.92;101022.59;4156791;28;20034;-65
2022/12/20 03:42:47;;;;;;;22.52;15.98;;;;;;;4.70;73.22;101016.66;4161929;28;20041;-64
2022/12/20 03:44:49;;;;;;;24.25;15.25;;;;;;;4.76;73.15;101010.00;4153247;28;20037;-64
2022/12/20 03:46:52;;;;;;;18.27;12.27;;;;;;;4.79;73.52;101013.63;4158297;28;20088;-65
2022/12/20 03:48:56;;;;;;;21.45;13.25;;;;;;;4.86;73.67;101002.78;4146876;28;20041;-65
2022/12/20 03:50:59;;;;;;;17.20;11.68;;;;;;;4.90;73.77;101004.69;4150440;28;20496;-65
2022/12/20 03:53:03;;;;;;;18.70;11.68;;;;;;;5.00;74.11;101000.84;4163546;28;20055;-65
2022/12/20 03:55:11;;;;;;;18.58;11.15;;;;;;;5.03;74.10;100997.53;4162523;28;20069;-65
2022/12/20 03:57:18;;;;;;;17.45;11.80;;;;;;;5.07;74.25;101002.00;4154076;28;20053;-65
2022/12/20 03:59:23;;;;;;;21.45;12.45;;;;;;;5.14;74.25;101004.06;4157507;28;20499;-65
2022/12/20 04:01:29;;;;;;;18.20;12.57;;;;;;;5.16;74.34;101005.00;4158911;28;20057;-64
2022/12/20 04:03:32;;;;;;;16.75;11.45;;;;;;;5.16;74.68;101005.00;4156959;28;20036;-65
2022/12/20 04:05:35;;;;;;;16.23;10.63;;;;;;;5.19;74.58;101001.69;4162323;28;20045;-65
2022/12/20 04:07:38;;;;;;;18.02;11.23;;;;;;;5.33;74.58;101002.28;4162357;28;20041;-64
2022/12/20 04:09:42;;;;;;;15.02;10.13;;;;;;;5.24;74.70;100993.34;4146864;28;20092;-65
2022/12/20 04:11:47;;;;;;;19.55;11.88;;;;;;;5.32;74.71;100996.25;4159977;28;20037;-66
2022/12/20 04:13:52;;;;;;;17.30;11.13;;;;;;;5.30;74.72;101004.72;4155920;28;20065;-66
2022/12/20 04:15:55;;;;;;;18.50;11.35;;;;;;;5.31;74.88;100998.75;4162889;28;20248;-67
2022/12/20 04:18:05;;;;;;;20.42;10.90;;;;;;;5.33;74.87;100997.13;4162798;28;20124;-66
2022/12/20 04:20:22;;;;;;;16.13;10.88;;;;;;;5.37;74.71;100988.72;4149012;28;20069;-66
2022/12/20 04:22:39;;;;;;;17.17;10.95;;;;;;;5.35;75.04;100983.47;4160906;28;20038;-66
2022/12/20 04:24:43;;;;;;;14.68;10.02;;;;;;;5.37;75.05;100974.13;4155286;28;20484;-65
2022/12/20 04:26:56;;;;;;;18.60;11.03;;;;;;;5.37;74.90;100973.25;4156713;28;20125;-64
2022/12/20 04:28:59;;;;;;;15.75;11.20;;;;;;;5.36;74.89;100979.19;4136579;28;20157;-65
2022/12/20 04:31:03;;;;;;;18.25;11.82;;;;;;;5.41;75.01;100981.16;4151857;28;20045;-64
2022/12/20 04:33:10;;;;;;;16.33;11.38;;;;;;;5.42;74.99;100982.94;4161457;28;20044;-64
2022/12/20 04:35:13;;;;;;;17.35;11.15;;;;;;;5.46;74.86;100993.38;4160916;28;20038;-64
2022/12/20 04:37:17;;;;;;;14.43;10.40;;;;;;;5.45;74.90;100996.75;4150799;28;20038;-65
2022/12/20 04:39:25;;;;;;;17.77;11.52;;;;;;;5.49;74.86;100984.09;4159043;28;20054;-65
2022/12/20 04:41:48;;;;;;;18.77;10.43;;;;;;;5.44;74.95;100988.16;4157779;28;20046;-65
2022/12/20 04:43:53;;;;;;;14.32;9.02;;;;;;;5.42;75.13;100980.34;4154691;28;20047;-66
2022/12/20 04:45:57;;;;;;;17.85;11.77;;;;;;;5.47;75.15;100982.25;4144152;28;20124;-66
2022/12/20 04:48:01;;;;;;;18.50;10.03;;;;;;;5.47;75.14;100984.84;4162123;28;20137;-67
2022/12/20 04:50:24;;;;;;;16.65;10.50;;;;;;;5.49;75.02;100978.03;4162695;28;20050;-66
2022/12/20 04:54:50;;;;;;;17.25;9.63;;;;;;;5.48;74.95;100977.16;4150340;28;20626;-67
2022/12/20 04:57:00;;;;;;;16.23;10.27;;;;;;;5.49;75.27;100978.03;4152017;28;20523;-67
2022/12/20 04:59:04;;;;;;;17.63;10.32;;;;;;;5.49;75.35;100976.38;4147094;28;20438;-68
2022/12/20 05:01:06;;;;;;;14.35;9.95;;;;;;;5.52;74.97;100968.75;4159082;28;20038;-68
2022/12/20 05:03:18;;;;;;;16.40;10.85;;;;;;;5.53;75.30;100985.97;4157582;28;20439;-67
2022/12/20 05:05:21;;;;;;;15.05;9.38;;;;;;;5.53;75.17;100985.97;4158778;28;20038;-68
2022/12/20 05:07:27;;;;;;;16.67;10.75;;;;;;;5.54;75.21;100972.28;4144184;28;20553;-68
2022/12/20 05:09:31;;;;;;;17.25;10.52;;;;;;;5.55;75.35;100975.75;4165031;28;20150;-67
2022/12/20 05:11:35;;;;;;;14.82;9.32;;;;;;;5.57;75.29;100976.69;4133506;28;20440;-68
2022/12/20 05:13:42;;;;;;;16.65;10.48;;;;;;;5.66;75.11;100978.78;4176531;28;20044;-68
2022/12/20 05:15:50;;;;;;;;;;;;;;;5.57;75.05;100974.97;4155508;28;20091;-67
2022/12/20 05:17:58;;;;;;;16.67;10.30;;;;;;;5.58;75.33;100974.16;4163254;28;19925;-68
2022/12/20 05:20:05;;;;;;;15.80;10.48;;;;;;;5.64;75.15;100975.25;4159095;28;20419;-67
2022/12/20 05:27:06;;;;;;;14.73;9.43;;;;;;;5.62;75.19;100958.81;4180558;28;20091;-68
2022/12/20 05:29:11;;;;;;;14.90;9.73;;;;;;;5.65;75.18;100959.84;4181867;28;20487;-67
2022/12/20 05:31:14;;;;;;;15.05;10.07;;;;;;;5.65;75.24;100964.09;4165306;28;20055;-68
2022/12/20 05:33:18;;;;;;;14.10;9.20;;;;;;;5.78;74.87;100961.22;4165137;28;20041;-67
2022/12/20 05:35:21;;;;;;;16.80;10.20;;;;;;;5.69;74.87;100969.44;4163216;28;20069;-67
2022/12/20 05:37:32;;;;;;;17.00;10.10;;;;;;;5.71;75.36;100970.41;4165143;28;20377;-67
2022/12/20 05:39:42;;;;;;;17.33;10.15;;;;;;;5.72;75.12;100961.88;4165241;28;20112;-67
2022/12/20 05:41:52;;;;;;;12.95;8.77;;;;;;;5.75;75.20;100964.56;4165215;28;20068;-67
2022/12/20 05:43:57;;;;;;;14.80;8.80;;;;;;;5.75;75.16;100953.34;4148357;28;20078;-67
2022/12/20 05:46:03;;;;;;;13.30;8.80;;;;;;;5.73;75.13;100962.75;4163882;28;20033;-67
2022/12/20 05:48:16;;;;;;;14.45;9.18;;;;;;;5.77;75.10;100959.47;4160383;28;20042;-68
2022/12/20 05:50:19;;;;;;;15.10;9.15;;;;;;;5.82;75.17;100942.47;4165040;28;20041;-67
2022/12/20 05:52:40;;;;;;;14.73;8.90;;;;;;;5.81;75.11;100948.47;4166161;28;20045;-68
2022/12/20 05:54:49;;;;;;;10.95;8.45;;;;;;;5.83;75.16;100944.25;4147105;28;20038;-67
2022/12/20 05:56:53;;;;;;;10.07;7.18;;;;;;;5.85;74.91;100939.16;4164054;28;20391;-68
2022/12/20 05:59:02;;;;;;;12.70;7.93;;;;;;;5.89;74.70;100944.50;4157493;28;20501;-68
2022/12/20 06:01:09;;;;;;;14.27;8.95;;;;;;;5.91;74.93;100947.13;4165981;28;20038;-67
2022/12/20 06:03:13;;;;;;;14.50;8.75;;;;;;;5.93;74.55;100946.38;4164673;28;20041;-67
2022/12/20 06:05:17;;;;;;;12.70;8.55;;;;;;;5.96;74.35;100943.06;4164681;28;20045;-67
2022/12/20 06:07:21;;;;;;;13.82;9.07;;;;;;;5.99;74.82;100950.06;4148266;28;20133;-68
2022/12/20 06:09:29;;;;;;;12.75;8.15;;;;;;;5.99;74.54;100947.50;4158352;28;20108;-68
2022/12/20 06:11:40;;;;;;;14.15;8.65;;;;;;;6.01;74.14;100940.69;4163335;28;20045;-68
2022/12/20 06:13:46;;;;;;;12.48;7.90;;;;;;;6.00;74.31;100939.81;4147913;28;20069;-68
2022/12/20 06:15:49;;;;;;;13.75;9.15;;;;;;;6.04;74.19;100928.78;4148189;28;20038;-68
2022/12/20 06:17:55;;;;;;;13.02;8.82;;;;;;;6.03;74.35;100934.78;4147961;28;20066;-68
2022/12/20 06:19:57;;;;;;;14.13;8.25;;;;;;;6.03;74.18;100928.72;4157540;28;20041;-68
2022/12/20 06:22:00;;;;;;;12.60;8.43;;;;;;;6.02;74.43;100932.13;4164513;28;20471;-68
2022/12/20 06:24:29;;;;;;;14.25;8.23;;;;;;;6.01;74.44;100930.38;4162949;28;20053;-68
2022/12/20 06:26:35;;;;;;;12.30;8.43;;;;;;;6.03;74.25;100932.19;4164473;28;20164;-68
2022/12/20 06:28:41;;;;;;;13.25;7.90;;;;;;;6.03;74.74;100918.38;4163537;28;20405;-68
2022/12/20 06:30:44;;;;;;;13.00;8.88;;;;;;;6.02;74.46;100933.00;4164290;28;20527;-68
2022/12/20 06:32:55;;;;;;;13.55;8.75;;;;;;;6.04;74.50;100926.19;4164301;28;20492;-68
2022/12/20 06:34:58;;;;;;;13.77;8.70;;;;;;;6.05;74.06;100914.19;4163948;28;20092;-67
2022/12/20 06:37:01;;;;;;;14.85;9.07;;;;;;;6.07;74.41;100922.84;4165594;28;20136;-68
2022/12/20 06:39:08;;;;;;;14.40;8.75;;;;;;;6.04;74.12;100913.28;4146813;28;20573;-68
2022/12/20 06:41:19;;;;;;;13.20;8.48;;;;;;;6.06;74.24;100915.94;4147690;28;20038;-68
2022/12/20 06:43:22;;;;;;;15.18;8.80;;;;;;;6.05;74.43;100904.72;4163892;28;20483;-68
2022/12/20 06:45:25;;;;;;;14.05;9.05;;;;;;;6.08;74.45;100909.16;4164092;28;20092;-68
2022/12/20 06:47:29;;;;;;;13.65;9.07;;;;;;;6.08;74.05;100898.81;4153035;28;20038;-68
2022/12/20 06:49:34;;;;;;;15.70;9.23;;;;;;;6.07;74.37;100904.78;4145335;28;20046;-68
2022/12/20 06:51:44;;;;;;;14.48;8.70;;;;;;;6.09;73.71;100903.16;4164105;28;20129;-68
2022/12/20 06:53:47;;;;;;;12.48;7.45;;;;;;;6.09;73.75;100900.59;4163681;28;20075;-68
2022/12/20 06:55:51;;;;;;;13.90;8.32;;;;;;;6.15;74.08;100905.09;4147610;28;20132;-65
2022/12/20 06:57:54;;;;;;;17.33;9.65;;;;;;;6.15;73.82;100915.41;4162857;28;20519;-66
2022/12/20 06:59:57;;;;;;;13.40;8.38;;;;;;;6.20;74.10;100916.50;4163901;28;20037;-66
2022/12/20 07:01:59;;;;;;;13.20;9.85;;;;;;;6.18;73.54;100913.84;4180430;28;20048;-66
2022/12/20 07:04:04;;;;;;;14.32;9.32;;;;;;;6.33;73.25;100917.84;4164757;28;20091;-67
2022/12/20 07:06:08;;;;;;;11.05;7.68;;;;;;;6.28;73.57;100925.44;4162745;28;20068;-67
2022/12/20 07:08:11;;;;;;;15.30;8.23;;;;;;;6.23;73.23;100920.06;4159656;28;20533;-66
2022/12/20 07:10:14;;;;;;;12.43;7.82;;;;;;;6.24;73.63;100919.25;4163719;28;20041;-68
2022/12/20 07:12:17;;;;;;;13.65;9.27;;;;;;;6.30;73.27;100916.03;4164890;28;20438;-67
2022/12/20 07:14:19;;;;;;;13.32;8.40;;;;;;;6.32;73.62;100923.81;4163272;28;20410;-68
2022/12/20 07:16:23;;;;;;;14.85;9.43;;;;;;;6.27;73.39;100924.53;4162715;28;20072;-67
2022/12/20 07:18:27;;;;;;;;;;;;;;;6.23;73.30;100925.22;4165281;28;20419;-67
2022/12/20 07:20:31;;;;;;;13.05;8.82;;;;;;;6.30;73.35;100923.78;4164862;28;19921;-67
2022/12/20 07:22:35;;;;;;;12.65;8.10;;;;;;;6.35;73.11;100923.94;4147257;28;20527;-67
2022/12/20 07:24:38;;;;;;;13.30;8.65;;;;;;;6.33;73.35;100920.44;4164427;28;20041;-67
2022/12/20 07:26:43;;;;;;;10.35;7.22;;;;;;;6.37;73.54;100919.75;4162576;28;20041;-66
2022/12/20 07:28:46;;;;;;;13.30;9.00;;;;;;;6.36;73.38;100905.06;4163089;28;20068;-67
2022/12/20 07:30:49;;;;;;;13.93;8.65;;;;;;;6.33;73.30;100898.06;4164103;28;20096;-67
2022/12/20 07:32:51;;;;;;;13.45;8.27;;;;;;;6.33;73.50;100899.78;4164567;28;20044;-66
2022/12/20 07:34:54;;;;;;;13.32;8.77;;;;;;;6.28;73.58;100909.94;4161462;28;20056;-67
2022/12/20 07:36:57;;;;;;;13.68;8.30;;;;;;;6.35;73.11;100918.78;4163179;28;20049;-67
2022/12/20 07:39:01;;;;;;;13.48;8.15;;;;;;;6.33;73.40;100925.59;4160441;28;20037;-66
2022/12/20 07:41:07;;;;;;;12.88;8.63;;;;;;;6.41;73.13;100924.16;4163123;28;20049;-67
2022/12/20 07:43:10;;;;;;;12.52;8.05;;;;;;;6.39;73.08;100920.66;4164395;28;20191;-67
2022/12/20 07:45:14;;;;;;;11.70;7.55;;;;;;;6.36;73.12;100911.09;4164341;28;20495;-67
2022/12/20 07:47:17;;;;;;;12.52;8.30;;;;;;;6.39;73.06;100923.25;4164407;28;20088;-66
2022/12/20 07:49:20;;;;;;;11.38;8.32;;;;;;;6.40;73.26;100917.28;4159931;28;20139;-67
2022/12/20 07:51:27;;;;;;;13.52;8.95;;;;;;;6.38;72.87;100912.06;4164255;28;20037;-67
2022/12/20 07:53:32;;;;;;;13.48;7.57;;;;;;;6.43;72.83;100912.22;4164002;28;20144;-67
2022/12/20 07:55:41;;;;;;;11.98;7.65;;;;;;;6.40;73.00;100904.34;4163073;28;20573;-67
2022/12/20 07:57:48;;;;;;;11.90;7.03;;;;;;;6.38;73.23;100903.41;4164340;28;20124;-67
2022/12/20 07:59:54;;;;;;;12.48;8.60;;;;;;;6.40;72.80;100896.59;4159841;28;20041;-67
2022/12/20 08:01:57;;;;;;;13.25;7.80;;;;;;;6.41;73.14;100904.41;4162932;28;20487;-67
2022/12/20 08:04:12;;;;;;;10.90;7.78;;;;;;;6.42;72.68;100900.13;4163865;28;20050;-67
2022/12/20 08:06:17;;;;;;;14.85;8.95;;;;;;;6.41;73.11;100890.59;4159519;28;20388;-68
2022/12/20 08:08:21;;;;;;;12.98;9.20;;;;;;;6.44;72.74;100894.19;4162745;28;20034;-67
2022/12/20 08:10:24;;;;;;;12.77;8.25;;;;;;;6.44;72.53;100880.41;4161415;28;20037;-67
2022/12/20 08:12:30;;;;;;;10.90;7.72;;;;;;;6.49;72.57;100878.88;4156450;28;20511;-67
2022/12/20 08:14:33;;;;;;;12.95;9.00;;;;;;;6.42;72.52;100880.31;4163643;28;20045;-67
2022/12/20 08:16:36;;;;;;;12.70;8.05;;;;;;;6.44;72.70;100873.53;4162855;28;20084;-67
2022/12/20 08:18:39;;;;;;;15.27;9.57;;;;;;;6.45;72.35;100875.31;4161890;28;20037;-67
2022/12/20 08:20:42;;;;;;;12.18;8.50;;;;;;;6.46;72.78;100883.91;4162581;28;20041;-67
2022/12/20 08:22:45;;;;;;;11.93;7.82;;;;;;;6.53;72.76;100882.47;4157110;28;20067;-67
2022/12/20 08:24:47;;;;;;;12.45;7.97;;;;;;;6.52;72.64;100881.56;4163507;28;20044;-67
2022/12/20 08:26:50;;;;;;;14.43;8.18;;;;;;;6.56;72.90;100877.41;4164007;28;20087;-67
2022/12/20 08:28:55;;;;;;;11.00;7.85;;;;;;;6.58;72.53;100873.16;4162735;28;20558;-67
2022/12/20 08:31:02;;;;;;;13.18;8.18;;;;;;;6.57;72.33;100869.72;4163041;28;20029;-67
2022/12/20 08:33:05;;;;;;;12.68;8.50;;;;;;;6.58;72.62;100874.03;4163310;28;20041;-67
2022/12/20 08:35:08;;;;;;;15.13;8.05;;;;;;;6.56;72.13;100890.31;4163716;28;20494;-66
2022/12/20 08:37:11;;;;;;;11.48;7.35;;;;;;;6.58;72.76;100899.88;4163946;28;20040;-66
2022/12/20 08:39:17;;;;;;;12.88;8.20;;;;;;;6.61;72.66;100891.34;4163960;28;20388;-67
2022/12/20 08:41:19;;;;;;;12.05;7.45;;;;;;;6.65;72.55;100888.06;4160613;28;20057;-67
2022/12/20 08:43:23;;;;;;;13.35;8.32;;;;;;;6.68;72.52;100875.25;4163122;28;20453;-68
2022/12/20 08:45:27;;;;;;;15.48;8.65;;;;;;;6.66;72.25;100881.19;4165801;28;20053;-67
2022/12/20 08:47:30;;;;;;;13.48;7.88;;;;;;;6.63;72.40;100885.44;4160221;28;20044;-68
2022/12/20 08:49:33;;;;;;;12.25;7.53;;;;;;;6.69;72.51;100887.38;4163438;28;20031;-68
2022/12/20 08:51:36;;;;;;;11.70;7.57;;;;;;;6.74;72.08;100877.19;4165316;28;20119;-68
2022/12/20 08:53:39;;;;;;;12.95;7.93;;;;;;;6.71;72.02;100862.44;4166743;28;20050;-68
2022/12/20 08:55:42;;;;;;;11.57;7.78;;;;;;;6.77;72.39;100866.97;4166999;28;20048;-67
2022/12/20 08:57:44;;;;;;;12.00;8.00;;;;;;;6.76;72.64;100847.09;4167164;28;20037;-68
2022/12/20 08:59:47;;;;;;;13.27;7.70;;;;;;;6.79;72.42;100855.88;4164733;28;20045;-68
2022/12/20 09:01:53;;;;;;;13.30;8.10;;;;;;;6.83;72.19;100851.69;4182105;28;20075;-68
2022/12/20 09:03:56;;;;;;;11.88;8.43;;;;;;;6.85;72.02;100855.22;4150298;28;20062;-68
2022/12/20 09:05:59;;;;;;;13.68;8.45;;;;;;;6.86;72.44;100856.94;4150493;28;20034;-68
2022/12/20 09:08:02;;;;;;;14.68;9.13;;;;;;;6.89;72.35;100858.78;4151135;28;20475;-68
2022/12/20 09:10:06;;;;;;;11.45;8.05;;;;;;;6.86;72.35;100862.13;4152571;28;20096;-68
2022/12/20 09:12:09;;;;;;;14.07;8.50;;;;;;;6.92;71.99;100864.03;4166871;28;20083;-68
2022/12/20 09:14:12;;;;;;;13.93;8.05;;;;;;;6.94;71.81;100865.88;4165187;28;20434;-69
2022/12/20 09:16:18;;;;;;;14.60;8.32;;;;;;;6.93;72.21;100853.75;4166788;28;20053;-67
2022/12/20 09:18:22;;;;;;;12.75;7.47;;;;;;;6.96;71.73;100858.16;4164502;28;20487;-68
2022/12/20 09:20:25;;;;;;;11.20;7.18;;;;;;;6.99;71.49;100846.25;4162094;28;20060;-68
2022/12/20 09:22:28;;;;;;;11.65;7.72;;;;;;;7.03;71.70;100851.53;4162444;28;20168;-68
2022/12/20 09:24:31;;;;;;;13.75;8.15;;;;;;;7.10;71.79;100846.59;4166242;28;20495;-68
2022/12/20 09:26:34;;;;;;;13.65;7.47;;;;;;;7.11;71.13;100850.06;4166896;28;20092;-68
2022/12/20 09:28:38;;;;;;;14.68;7.32;;;;;;;7.10;71.49;100851.78;4159162;28;20037;-68
2022/12/20 09:30:41;;;;;;;11.70;6.90;;;;;;;7.10;71.73;100856.06;4164205;28;20033;-68
2022/12/20 09:32:44;;;;;;;11.57;8.00;;;;;;;7.22;71.27;100848.72;4159961;28;20033;-68
2022/12/20 09:34:48;;;;;;;12.43;7.95;;;;;;;7.18;71.75;100848.56;4165196;28;20510;-68
2022/12/20 09:36:51;;;;;;;11.32;6.97;;;;;;;7.23;71.53;100855.66;4166463;28;20496;-67
2022/12/20 09:38:55;;;;;;;10.32;6.90;;;;;;;7.23;71.75;100853.09;4157225;28;20148;-68
2022/12/20 09:41:01;;;;;;;11.57;7.88;;;;;;;7.31;71.52;100850.75;4164209;28;20049;-68
2022/12/20 09:43:04;;;;;;;12.65;7.00;;;;;;;7.36;71.49;100854.38;4157750;28;20069;-67
2022/12/20 09:45:09;;;;;;;11.45;7.95;;;;;;;7.41;71.47;100851.94;4164782;28;20042;-67
2022/12/20 09:47:17;;;;;;;12.40;8.07;;;;;;;7.46;71.29;100846.09;4166331;28;20057;-68
2022/12/20 09:49:25;;;;;;;11.90;7.15;;;;;;;7.54;70.78;100841.16;4158043;28;20515;-68
2022/12/20 09:51:49;;;;;;;14.15;8.60;;;;;;;7.64;70.34;100839.78;4148382;28;20145;-68